Heritage Ranch, California
Current Conditions -  °F | °C
As of 10:53 AM on Thursday 23 Oct 2014 (Local Time) from KPRB Reporting Station
Clear Clear  
Wind Chill: 64°   Ceiling: Unl
Heat Index: 64°   Visibility: 10mi
Dew Point: 43°   Wind: 6mph
Humidity: 46%   Direction: 320°NW
Pressure: 30.07"   Gusts: NA
Location:  35.6618°N, 120.707°W
Report Text: KPRB 231753Z AUTO 32005KT 10SM CLR 18/06 A3007 RMK AO2 SLP180 T01780061 10178 20061 50007 TSNO
Loading
Personal Weather Stations






























Interactive Weather Map
Tropical Storm Tracking
New forecast layout! Learn more

10-Day Weather Forecast

Advertisements
Track Severe Weather on mobile